Time;durP1;ratioP1;P1;durP2;ratioP2;P2;SDS_P1;SDS_P2;PMS_P1;PMS_P2;Temp;Humidity;BMP_temperature;BMP_pressure;BME280_temperature;BME280_humidity;BME280_pressure;Samples;Min_cycle;Max_cycle;Signal;HPM_P1;HPM_P2
2023/12/08 00:00:46;;;;;;;0.20;0.20;;;;;;;;;;1728072;28;20704;-62
2023/12/08 00:01:38;;;;;;;0.20;0.20;;;;;;;;;;1730320;28;20209;-62
2023/12/08 00:02:29;;;;;;;0.05;0.05;;;;;;;;;;1728026;28;20214;-64
2023/12/08 00:03:20;;;;;;;0.25;0.25;;;;;;;;;;1729893;28;20290;-65
2023/12/08 00:04:12;;;;;;;0.20;0.20;;;;;;;;;;1730788;28;20205;-62
2023/12/08 00:05:03;;;;;;;0.20;0.20;;;;;;;;;;1730875;28;20503;-62
2023/12/08 00:05:55;;;;;;;0.20;0.20;;;;;;;;;;1730218;28;20236;-67
2023/12/08 00:06:46;;;;;;;0.20;0.20;;;;;;;;;;1730951;28;20230;-65
2023/12/08 00:07:37;;;;;;;0.10;0.10;;;;;;;;;;1727360;28;20301;-64
2023/12/08 00:08:29;;;;;;;0.20;0.20;;;;;;;;;;1729082;28;20211;-64
2023/12/08 00:09:20;;;;;;;0.10;0.10;;;;;;;;;;1730689;28;20272;-65
2023/12/08 00:10:14;;;;;;;0.10;0.10;;;;;;;;;;1729793;28;20210;-63
2023/12/08 00:11:05;;;;;;;0.10;0.10;;;;;;;;;;1730916;28;20633;-63
2023/12/08 00:11:57;;;;;;;0.25;0.25;;;;;;;;;;1731707;28;20217;-62
2023/12/08 00:12:49;;;;;;;0.10;0.10;;;;;;;;;;1727919;28;20720;-63
2023/12/08 00:13:41;;;;;;;0.10;0.10;;;;;;;;;;1730102;28;20230;-64
2023/12/08 00:14:33;;;;;;;0.20;0.20;;;;;;;;;;1730212;28;20284;-62
2023/12/08 00:15:24;;;;;;;0.28;0.28;;;;;;;;;;1729815;28;20269;-62
2023/12/08 00:16:16;;;;;;;0.00;0.00;;;;;;;;;;1730944;28;20209;-65
2023/12/08 00:17:07;;;;;;;0.10;0.10;;;;;;;;;;1731078;28;20215;-66
2023/12/08 00:17:58;;;;;;;0.15;0.15;;;;;;;;;;1728151;28;20206;-63
2023/12/08 00:18:50;;;;;;;0.10;0.10;;;;;;;;;;1730472;28;20232;-64
2023/12/08 00:19:41;;;;;;;0.10;0.10;;;;;;;;;;1731257;28;20296;-65
2023/12/08 00:20:33;;;;;;;0.20;0.20;;;;;;;;;;1729525;28;20662;-63
2023/12/08 00:21:25;;;;;;;0.30;0.30;;;;;;;;;;1730846;28;20215;-63
2023/12/08 00:22:16;;;;;;;0.45;0.45;;;;;;;;;;1729791;28;20213;-64
2023/12/08 00:23:08;;;;;;;0.10;0.10;;;;;;;;;;1728539;28;20203;-65
2023/12/08 00:23:59;;;;;;;0.20;0.20;;;;;;;;;;1731665;28;20210;-65
2023/12/08 00:24:50;;;;;;;0.10;0.10;;;;;;;;;;1729523;28;20686;-65
2023/12/08 00:25:43;;;;;;;0.10;0.10;;;;;;;;;;1729741;28;20755;-66
2023/12/08 00:26:34;;;;;;;0.20;0.20;;;;;;;;;;1730580;28;20271;-64
2023/12/08 00:27:25;;;;;;;0.25;0.25;;;;;;;;;;1728930;28;20785;-67
2023/12/08 00:28:17;;;;;;;0.20;0.20;;;;;;;;;;1729378;28;20789;-64
2023/12/08 00:29:08;;;;;;;0.10;0.10;;;;;;;;;;1731120;28;20214;-66
2023/12/08 00:29:59;;;;;;;0.17;0.17;;;;;;;;;;1731401;28;20210;-65
2023/12/08 00:30:52;;;;;;;0.00;0.00;;;;;;;;;;1729179;28;20229;-64
2023/12/08 00:31:43;;;;;;;0.08;0.08;;;;;;;;;;1731908;28;20212;-62
2023/12/08 00:32:35;;;;;;;0.05;0.05;;;;;;;;;;1729019;28;20295;-62
2023/12/08 00:33:26;;;;;;;0.20;0.20;;;;;;;;;;1730203;28;20265;-62
2023/12/08 00:34:18;;;;;;;0.10;0.10;;;;;;;;;;1730612;28;20217;-62
2023/12/08 00:35:10;;;;;;;0.00;0.00;;;;;;;;;;1730440;28;20208;-63
2023/12/08 00:36:01;;;;;;;0.10;0.10;;;;;;;;;;1725365;28;20677;-63
2023/12/08 00:36:52;;;;;;;0.10;0.10;;;;;;;;;;1730876;28;20288;-63
2023/12/08 00:37:43;;;;;;;0.35;0.35;;;;;;;;;;1731572;28;20623;-62
2023/12/08 00:38:34;;;;;;;0.20;0.20;;;;;;;;;;1731103;28;20207;-63
2023/12/08 00:39:25;;;;;;;0.32;0.32;;;;;;;;;;1731033;28;20206;-63
2023/12/08 00:40:18;;;;;;;0.10;0.10;;;;;;;;;;1730879;28;20288;-63
2023/12/08 00:41:10;;;;;;;0.10;0.10;;;;;;;;;;1738056;28;20713;-62
2023/12/08 00:42:02;;;;;;;0.22;0.22;;;;;;;;;;1738490;28;20648;-63
2023/12/08 00:42:53;;;;;;;0.10;0.10;;;;;;;;;;1737935;28;20268;-62
2023/12/08 00:43:45;;;;;;;0.25;0.25;;;;;;;;;;1738111;28;20592;-64
2023/12/08 00:44:37;;;;;;;0.10;0.10;;;;;;;;;;1737930;28;20309;-66
2023/12/08 00:45:29;;;;;;;0.10;0.10;;;;;;;;;;1736954;28;20746;-64
2023/12/08 00:46:20;;;;;;;0.20;0.20;;;;;;;;;;1737678;28;20266;-61
2023/12/08 00:47:11;;;;;;;0.08;0.08;;;;;;;;;;1737910;28;20210;-63
2023/12/08 00:48:03;;;;;;;0.05;0.05;;;;;;;;;;1738267;28;20396;-64
2023/12/08 00:48:54;;;;;;;0.10;0.10;;;;;;;;;;1738297;28;20214;-64
2023/12/08 00:49:46;;;;;;;0.20;0.20;;;;;;;;;;1737915;28;20260;-63
2023/12/08 00:50:37;;;;;;;0.20;0.20;;;;;;;;;;1737395;28;20265;-63
2023/12/08 00:51:29;;;;;;;0.40;0.40;;;;;;;;;;1737876;28;20276;-65
2023/12/08 00:52:20;;;;;;;0.22;0.22;;;;;;;;;;1738536;28;20275;-64
2023/12/08 00:53:11;;;;;;;0.32;0.32;;;;;;;;;;1738137;28;20206;-64
2023/12/08 00:54:03;;;;;;;0.10;0.10;;;;;;;;;;1738608;28;20348;-65
2023/12/08 00:54:54;;;;;;;0.13;0.13;;;;;;;;;;1737716;28;20275;-65
2023/12/08 00:55:45;;;;;;;0.20;0.20;;;;;;;;;;1736343;28;20230;-63
2023/12/08 00:56:39;;;;;;;0.10;0.10;;;;;;;;;;1737596;28;20419;-67
2023/12/08 00:57:30;;;;;;;0.20;0.20;;;;;;;;;;1738525;28;20210;-62
2023/12/08 00:58:21;;;;;;;0.20;0.20;;;;;;;;;;1737797;28;20206;-64
2023/12/08 00:59:13;;;;;;;0.15;0.15;;;;;;;;;;1738350;28;20257;-64
2023/12/08 01:00:04;;;;;;;0.20;0.20;;;;;;;;;;1738349;28;20619;-63
2023/12/08 01:00:56;;;;;;;0.40;0.40;;;;;;;;;;1734468;28;20250;-66
2023/12/08 01:01:47;;;;;;;0.20;0.20;;;;;;;;;;1737952;28;20271;-63
2023/12/08 01:02:38;;;;;;;0.15;0.15;;;;;;;;;;1737702;28;20210;-65
2023/12/08 01:03:35;;;;;;;0.10;0.10;;;;;;;;;;1738122;28;20816;-65
2023/12/08 01:04:26;;;;;;;0.15;0.15;;;;;;;;;;1734906;28;20219;-62
2023/12/08 01:05:18;;;;;;;0.00;0.00;;;;;;;;;;1737990;28;20244;-62
2023/12/08 01:06:10;;;;;;;0.10;0.10;;;;;;;;;;1736958;28;21112;-63
2023/12/08 01:07:01;;;;;;;0.10;0.10;;;;;;;;;;1738391;28;20284;-64
2023/12/08 01:07:53;;;;;;;0.10;0.10;;;;;;;;;;1738034;28;20268;-64
2023/12/08 01:08:44;;;;;;;0.10;0.10;;;;;;;;;;1736595;28;20357;-63
2023/12/08 01:09:35;;;;;;;0.15;0.15;;;;;;;;;;1737877;28;20280;-64
2023/12/08 01:10:27;;;;;;;0.10;0.10;;;;;;;;;;1737027;28;20206;-63
2023/12/08 01:11:18;;;;;;;0.20;0.20;;;;;;;;;;1737936;28;20318;-63
2023/12/08 01:12:12;;;;;;;0.10;0.10;;;;;;;;;;1738061;28;20752;-65
2023/12/08 01:13:03;;;;;;;0.00;0.00;;;;;;;;;;1738284;28;20276;-67
2023/12/08 01:13:54;;;;;;;0.10;0.10;;;;;;;;;;1738521;28;20241;-64
2023/12/08 01:14:46;;;;;;;0.35;0.35;;;;;;;;;;1734721;28;20313;-63
2023/12/08 01:15:37;;;;;;;0.10;0.10;;;;;;;;;;1731846;28;20347;-64
2023/12/08 01:16:28;;;;;;;0.08;0.08;;;;;;;;;;1735527;28;20210;-66
2023/12/08 01:17:20;;;;;;;0.13;0.13;;;;;;;;;;1738171;28;20673;-63
2023/12/08 01:18:11;;;;;;;0.20;0.20;;;;;;;;;;1737902;28;20233;-63
2023/12/08 01:19:03;;;;;;;0.20;0.20;;;;;;;;;;1738786;28;20293;-64
2023/12/08 01:19:54;;;;;;;0.30;0.30;;;;;;;;;;1737953;28;20694;-64
2023/12/08 01:20:46;;;;;;;0.20;0.20;;;;;;;;;;1737298;28;20656;-64
2023/12/08 01:21:37;;;;;;;0.10;0.10;;;;;;;;;;1737878;28;20214;-63
2023/12/08 01:22:28;;;;;;;0.10;0.10;;;;;;;;;;1738529;28;20525;-65
2023/12/08 01:23:20;;;;;;;0.20;0.20;;;;;;;;;;1737829;28;20208;-62
2023/12/08 01:24:11;;;;;;;0.47;0.47;;;;;;;;;;1738696;28;20202;-62
2023/12/08 01:25:02;;;;;;;0.00;0.00;;;;;;;;;;1738277;28;20224;-62
2023/12/08 01:25:54;;;;;;;0.15;0.15;;;;;;;;;;1737396;28;20234;-65
2023/12/08 01:26:46;;;;;;;0.10;0.10;;;;;;;;;;1737971;28;20684;-61
2023/12/08 01:27:38;;;;;;;0.15;0.15;;;;;;;;;;1738521;28;20206;-66
2023/12/08 01:28:30;;;;;;;0.20;0.20;;;;;;;;;;1738541;28;20225;-62
2023/12/08 01:29:21;;;;;;;0.30;0.30;;;;;;;;;;1734840;28;20241;-62
2023/12/08 01:30:13;;;;;;;0.20;0.20;;;;;;;;;;1738275;28;20209;-64
2023/12/08 01:31:05;;;;;;;0.10;0.10;;;;;;;;;;1738756;28;20236;-67
2023/12/08 01:31:56;;;;;;;0.45;0.45;;;;;;;;;;1739690;28;20304;-62
2023/12/08 01:32:47;;;;;;;0.20;0.20;;;;;;;;;;1739772;28;20693;-62
2023/12/08 01:33:39;;;;;;;0.20;0.20;;;;;;;;;;1738693;28;20668;-63
2023/12/08 01:34:30;;;;;;;0.10;0.10;;;;;;;;;;1739013;28;20213;-62
2023/12/08 01:35:22;;;;;;;0.00;0.00;;;;;;;;;;1737333;28;20213;-62
2023/12/08 01:36:13;;;;;;;0.10;0.10;;;;;;;;;;1737936;28;20246;-64
2023/12/08 01:37:05;;;;;;;0.15;0.15;;;;;;;;;;1738443;28;20677;-65
2023/12/08 01:37:56;;;;;;;0.00;0.00;;;;;;;;;;1738042;28;20213;-63
2023/12/08 01:38:48;;;;;;;0.10;0.10;;;;;;;;;;1738489;28;20210;-65
2023/12/08 01:39:40;;;;;;;0.10;0.10;;;;;;;;;;1737827;28;20810;-62
2023/12/08 01:40:31;;;;;;;0.20;0.20;;;;;;;;;;1737302;28;20215;-65
2023/12/08 01:41:23;;;;;;;0.20;0.20;;;;;;;;;;1737909;28;20209;-65
2023/12/08 01:42:14;;;;;;;0.10;0.10;;;;;;;;;;1738545;28;20540;-64
2023/12/08 01:43:11;;;;;;;0.30;0.30;;;;;;;;;;1738169;28;20453;-62
2023/12/08 01:44:03;;;;;;;0.17;0.17;;;;;;;;;;1738280;28;20218;-63
2023/12/08 01:44:54;;;;;;;0.17;0.17;;;;;;;;;;1737837;28;20275;-65
2023/12/08 01:45:46;;;;;;;0.10;0.10;;;;;;;;;;1731062;28;20233;-61
2023/12/08 01:46:38;;;;;;;0.10;0.10;;;;;;;;;;1744152;28;20229;-64
2023/12/08 01:47:30;;;;;;;0.15;0.15;;;;;;;;;;1741130;28;20710;-62
2023/12/08 01:48:21;;;;;;;0.20;0.20;;;;;;;;;;1737262;28;20212;-65
2023/12/08 01:49:13;;;;;;;0.20;0.20;;;;;;;;;;1738316;28;20672;-62
2023/12/08 01:50:05;;;;;;;0.10;0.10;;;;;;;;;;1737951;28;20214;-61
2023/12/08 01:50:57;;;;;;;0.20;0.20;;;;;;;;;;1730722;28;20235;-62
2023/12/08 01:51:48;;;;;;;0.10;0.10;;;;;;;;;;1730744;28;20282;-65
2023/12/08 01:52:40;;;;;;;0.10;0.10;;;;;;;;;;1729700;28;20203;-65
2023/12/08 01:53:32;;;;;;;0.10;0.10;;;;;;;;;;1730937;28;20237;-63
2023/12/08 01:54:23;;;;;;;0.05;0.05;;;;;;;;;;1729614;28;20835;-64
2023/12/08 01:55:14;;;;;;;0.30;0.30;;;;;;;;;;1728453;28;20203;-63
2023/12/08 01:56:07;;;;;;;0.08;0.08;;;;;;;;;;1737950;28;20214;-64
2023/12/08 01:56:59;;;;;;;0.10;0.10;;;;;;;;;;1737726;28;20375;-62
2023/12/08 01:57:50;;;;;;;0.15;0.15;;;;;;;;;;1737829;28;20209;-65
2023/12/08 01:58:44;;;;;;;0.10;0.10;;;;;;;;;;1737855;28;20210;-64
2023/12/08 01:59:35;;;;;;;0.10;0.10;;;;;;;;;;1737744;28;20210;-62
2023/12/08 02:00:27;;;;;;;0.17;0.17;;;;;;;;;;1736844;28;20201;-62
2023/12/08 02:01:19;;;;;;;0.00;0.00;;;;;;;;;;1734940;28;20210;-66
2023/12/08 02:02:10;;;;;;;0.10;0.10;;;;;;;;;;1737907;28;20211;-66
2023/12/08 02:03:01;;;;;;;0.15;0.15;;;;;;;;;;1737849;28;20202;-64
2023/12/08 02:03:53;;;;;;;0.10;0.10;;;;;;;;;;1738164;28;20276;-66
2023/12/08 02:04:48;;;;;;;0.10;0.10;;;;;;;;;;1737270;28;20217;-64
2023/12/08 02:05:41;;;;;;;0.00;0.00;;;;;;;;;;1736962;28;20308;-64
2023/12/08 02:06:32;;;;;;;0.10;0.10;;;;;;;;;;1737247;28;20222;-65
2023/12/08 02:07:23;;;;;;;0.13;0.13;;;;;;;;;;1738332;28;20206;-61
2023/12/08 02:08:15;;;;;;;0.20;0.20;;;;;;;;;;1737745;28;20204;-66
2023/12/08 02:09:07;;;;;;;0.10;0.10;;;;;;;;;;1737062;28;20633;-65
2023/12/08 02:09:58;;;;;;;0.10;0.10;;;;;;;;;;1737684;28;20203;-64
2023/12/08 02:10:50;;;;;;;0.20;0.20;;;;;;;;;;1736885;28;20254;-63
2023/12/08 02:11:41;;;;;;;0.10;0.10;;;;;;;;;;1737274;28;20210;-62
2023/12/08 02:12:33;;;;;;;0.10;0.10;;;;;;;;;;1737833;28;20216;-66
2023/12/08 02:13:25;;;;;;;0.10;0.10;;;;;;;;;;1737698;28;20607;-62
2023/12/08 02:14:17;;;;;;;0.30;0.30;;;;;;;;;;1737833;28;20288;-63
2023/12/08 02:15:08;;;;;;;0.10;0.10;;;;;;;;;;1737797;28;20232;-61
2023/12/08 02:16:04;;;;;;;0.00;0.00;;;;;;;;;;1735647;28;20267;-62
2023/12/08 02:17:00;;;;;;;0.32;0.32;;;;;;;;;;1737080;28;20238;-62
2023/12/08 02:17:52;;;;;;;0.20;0.20;;;;;;;;;;1735996;28;20240;-63
2023/12/08 02:18:44;;;;;;;0.00;0.00;;;;;;;;;;1737882;28;20230;-63
2023/12/08 02:19:35;;;;;;;0.10;0.10;;;;;;;;;;1737403;28;20275;-67
2023/12/08 02:20:27;;;;;;;0.17;0.17;;;;;;;;;;1737004;28;20713;-63
2023/12/08 02:21:19;;;;;;;0.00;0.00;;;;;;;;;;1738661;28;20616;-62
2023/12/08 02:22:10;;;;;;;0.10;0.10;;;;;;;;;;1739659;28;20203;-63
2023/12/08 02:23:05;;;;;;;0.20;0.20;;;;;;;;;;1738713;28;20214;-65
2023/12/08 02:23:57;;;;;;;0.10;0.10;;;;;;;;;;1739519;28;20625;-63
2023/12/08 02:24:48;;;;;;;0.00;0.00;;;;;;;;;;1738889;28;20254;-67
2023/12/08 02:25:40;;;;;;;0.20;0.20;;;;;;;;;;1737801;28;20286;-65
2023/12/08 02:26:31;;;;;;;0.10;0.10;;;;;;;;;;1738839;28;20256;-66
2023/12/08 02:27:22;;;;;;;0.17;0.17;;;;;;;;;;1739155;28;20207;-66
2023/12/08 02:28:14;;;;;;;0.10;0.10;;;;;;;;;;1738984;28;20207;-63
2023/12/08 02:29:08;;;;;;;0.20;0.20;;;;;;;;;;1739633;28;20215;-65
2023/12/08 02:29:59;;;;;;;0.20;0.20;;;;;;;;;;1738885;28;20207;-67
2023/12/08 02:30:53;;;;;;;0.20;0.20;;;;;;;;;;1738331;28;20827;-65
2023/12/08 02:31:45;;;;;;;0.03;0.03;;;;;;;;;;1738743;28;20287;-63
2023/12/08 02:32:40;;;;;;;0.10;0.10;;;;;;;;;;1738969;28;20236;-67
2023/12/08 02:33:32;;;;;;;0.05;0.05;;;;;;;;;;1739044;28;20525;-63
2023/12/08 02:34:26;;;;;;;0.30;0.30;;;;;;;;;;1735499;28;20700;-68
2023/12/08 02:35:20;;;;;;;0.10;0.10;;;;;;;;;;1737913;28;20201;-63
2023/12/08 02:36:12;;;;;;;0.20;0.20;;;;;;;;;;1739225;28;20263;-64
2023/12/08 02:37:03;;;;;;;0.10;0.10;;;;;;;;;;1738992;28;20653;-63
2023/12/08 02:37:56;;;;;;;0.10;0.10;;;;;;;;;;1738742;28;20211;-63
2023/12/08 02:38:48;;;;;;;0.20;0.20;;;;;;;;;;1739152;28;20563;-63
2023/12/08 02:39:40;;;;;;;0.17;0.17;;;;;;;;;;1738475;28;20207;-64
2023/12/08 02:40:33;;;;;;;0.00;0.00;;;;;;;;;;1739021;28;20761;-65
2023/12/08 02:41:24;;;;;;;0.10;0.10;;;;;;;;;;1738170;28;20211;-65
2023/12/08 02:42:15;;;;;;;0.20;0.20;;;;;;;;;;1738856;28;20317;-62
2023/12/08 02:43:07;;;;;;;0.10;0.10;;;;;;;;;;1739217;28;20736;-66
2023/12/08 02:43:58;;;;;;;0.15;0.15;;;;;;;;;;1739129;28;20541;-65
2023/12/08 02:44:49;;;;;;;0.28;0.28;;;;;;;;;;1738742;28;20257;-65
2023/12/08 02:45:40;;;;;;;0.22;0.22;;;;;;;;;;1738034;28;20646;-67
2023/12/08 02:46:32;;;;;;;0.20;0.20;;;;;;;;;;1738080;28;20229;-63
2023/12/08 02:47:23;;;;;;;0.00;0.00;;;;;;;;;;1738810;28;20214;-62
2023/12/08 02:48:22;;;;;;;0.13;0.13;;;;;;;;;;1738634;28;20710;-65
2023/12/08 02:49:13;;;;;;;0.10;0.10;;;;;;;;;;1738416;28;20679;-63
2023/12/08 02:50:05;;;;;;;0.10;0.10;;;;;;;;;;1738490;28;20210;-63
2023/12/08 02:50:56;;;;;;;0.00;0.00;;;;;;;;;;1738082;28;20714;-65
2023/12/08 02:51:47;;;;;;;0.10;0.10;;;;;;;;;;1738835;28;20687;-66
2023/12/08 02:52:39;;;;;;;0.00;0.00;;;;;;;;;;1738683;28;20266;-65
2023/12/08 02:53:30;;;;;;;0.00;0.00;;;;;;;;;;1738979;28;20672;-62
2023/12/08 02:54:21;;;;;;;0.00;0.00;;;;;;;;;;1738651;28;20691;-64
2023/12/08 02:55:14;;;;;;;0.10;0.10;;;;;;;;;;1738569;28;20338;-62
2023/12/08 02:56:06;;;;;;;0.10;0.10;;;;;;;;;;1733503;28;20674;-61
2023/12/08 02:56:57;;;;;;;0.00;0.00;;;;;;;;;;1738662;28;20257;-61
2023/12/08 02:57:49;;;;;;;0.20;0.20;;;;;;;;;;1739078;28;20697;-63
2023/12/08 02:58:40;;;;;;;0.10;0.10;;;;;;;;;;1738687;28;20210;-62
2023/12/08 02:59:31;;;;;;;0.20;0.20;;;;;;;;;;1738998;28;20252;-63
2023/12/08 03:00:23;;;;;;;0.10;0.10;;;;;;;;;;1737707;28;20289;-63
2023/12/08 03:01:14;;;;;;;0.20;0.20;;;;;;;;;;1736130;28;20260;-63
2023/12/08 03:02:05;;;;;;;0.10;0.10;;;;;;;;;;1739259;28;20221;-63
2023/12/08 03:02:57;;;;;;;0.30;0.30;;;;;;;;;;1738042;28;20202;-63
2023/12/08 03:03:48;;;;;;;0.10;0.10;;;;;;;;;;1739065;28;20670;-63
2023/12/08 03:04:40;;;;;;;0.00;0.00;;;;;;;;;;1738522;28;20612;-62
2023/12/08 03:05:31;;;;;;;0.10;0.10;;;;;;;;;;1737615;28;20245;-63
2023/12/08 03:06:22;;;;;;;0.20;0.20;;;;;;;;;;1738329;28;20206;-62
2023/12/08 03:07:14;;;;;;;0.00;0.00;;;;;;;;;;1738991;28;20203;-63
2023/12/08 03:08:05;;;;;;;0.00;0.00;;;;;;;;;;1738674;28;20215;-63
2023/12/08 03:08:57;;;;;;;0.20;0.20;;;;;;;;;;1738096;28;20291;-64
2023/12/08 03:09:48;;;;;;;0.10;0.10;;;;;;;;;;1738528;28;20221;-65
2023/12/08 03:10:41;;;;;;;0.00;0.00;;;;;;;;;;1737813;28;20345;-63
2023/12/08 03:11:33;;;;;;;0.00;0.00;;;;;;;;;;1738408;28;20264;-63
2023/12/08 03:12:24;;;;;;;0.20;0.20;;;;;;;;;;1739185;28;20206;-64
2023/12/08 03:13:16;;;;;;;0.20;0.20;;;;;;;;;;1738574;28;20206;-64
2023/12/08 03:14:07;;;;;;;0.00;0.00;;;;;;;;;;1739492;28;20624;-65
2023/12/08 03:14:59;;;;;;;0.10;0.10;;;;;;;;;;1738405;28;20276;-65
2023/12/08 03:15:50;;;;;;;0.10;0.10;;;;;;;;;;1737503;28;20247;-63
2023/12/08 03:16:42;;;;;;;0.00;0.00;;;;;;;;;;1738186;28;20230;-64
2023/12/08 03:17:33;;;;;;;0.00;0.00;;;;;;;;;;1738527;28;20302;-64
2023/12/08 03:18:24;;;;;;;0.20;0.20;;;;;;;;;;1738333;28;20203;-64
2023/12/08 03:19:16;;;;;;;0.20;0.20;;;;;;;;;;1739057;28;20214;-65
2023/12/08 03:20:08;;;;;;;0.10;0.10;;;;;;;;;;1738887;28;20214;-62
2023/12/08 03:20:59;;;;;;;0.10;0.10;;;;;;;;;;1732771;28;20797;-62
2023/12/08 03:21:51;;;;;;;0.00;0.00;;;;;;;;;;1738506;28;20632;-63
2023/12/08 03:22:43;;;;;;;0.10;0.10;;;;;;;;;;1738788;28;20291;-60
2023/12/08 03:23:34;;;;;;;0.00;0.00;;;;;;;;;;1738368;28;20214;-63
2023/12/08 03:24:26;;;;;;;0.10;0.10;;;;;;;;;;1738936;28;20260;-65
2023/12/08 03:25:17;;;;;;;0.00;0.00;;;;;;;;;;1737537;28;20342;-68
2023/12/08 03:26:09;;;;;;;0.00;0.00;;;;;;;;;;1734085;28;21009;-63
2023/12/08 03:27:01;;;;;;;0.20;0.20;;;;;;;;;;1738364;28;20223;-67
2023/12/08 03:27:52;;;;;;;0.20;0.20;;;;;;;;;;1738585;28;20681;-63
2023/12/08 03:28:43;;;;;;;0.10;0.10;;;;;;;;;;1738857;28;20614;-62
2023/12/08 03:29:39;;;;;;;0.10;0.10;;;;;;;;;;1738523;28;20973;-63
2023/12/08 03:30:30;;;;;;;0.00;0.00;;;;;;;;;;1737721;28;20207;-64
2023/12/08 03:31:23;;;;;;;0.20;0.20;;;;;;;;;;1738517;28;20662;-63
2023/12/08 03:32:14;;;;;;;0.20;0.20;;;;;;;;;;1738667;28;20245;-62
2023/12/08 03:33:06;;;;;;;0.10;0.10;;;;;;;;;;1738304;28;20290;-64
2023/12/08 03:33:57;;;;;;;0.10;0.10;;;;;;;;;;1738744;28;20673;-62
2023/12/08 03:34:49;;;;;;;0.20;0.20;;;;;;;;;;1738440;28;20223;-63
2023/12/08 03:35:40;;;;;;;0.17;0.17;;;;;;;;;;1737675;28;20234;-62
2023/12/08 03:36:32;;;;;;;0.00;0.00;;;;;;;;;;1738006;28;20263;-64
2023/12/08 03:37:23;;;;;;;0.20;0.20;;;;;;;;;;1738873;28;20210;-61
2023/12/08 03:38:14;;;;;;;0.10;0.10;;;;;;;;;;1738740;28;20203;-64
2023/12/08 03:39:06;;;;;;;0.17;0.17;;;;;;;;;;1738830;28;20211;-64
2023/12/08 03:39:57;;;;;;;0.00;0.00;;;;;;;;;;1738181;28;20940;-64
2023/12/08 03:40:48;;;;;;;0.10;0.10;;;;;;;;;;1737573;28;20641;-67
2023/12/08 03:41:41;;;;;;;0.10;0.10;;;;;;;;;;1738286;28;20628;-65
2023/12/08 03:42:36;;;;;;;0.35;0.35;;;;;;;;;;1738634;28;20207;-64
2023/12/08 03:43:27;;;;;;;0.30;0.30;;;;;;;;;;1738489;28;20270;-63
2023/12/08 03:44:19;;;;;;;0.00;0.00;;;;;;;;;;1739122;28;20203;-64
2023/12/08 03:45:10;;;;;;;0.05;0.05;;;;;;;;;;1737134;28;20215;-64
2023/12/08 03:46:02;;;;;;;0.32;0.32;;;;;;;;;;1737928;28;20227;-64
2023/12/08 03:46:54;;;;;;;0.08;0.08;;;;;;;;;;1737983;28;20300;-63
2023/12/08 03:47:45;;;;;;;0.20;0.20;;;;;;;;;;1738468;28;20207;-65
2023/12/08 03:48:36;;;;;;;0.00;0.00;;;;;;;;;;1738267;28;20260;-65
2023/12/08 03:49:28;;;;;;;0.00;0.00;;;;;;;;;;1738868;28;20261;-65
2023/12/08 03:50:19;;;;;;;0.22;0.22;;;;;;;;;;1737803;28;20210;-68
2023/12/08 03:51:10;;;;;;;0.10;0.10;;;;;;;;;;1734160;28;20201;-64
2023/12/08 03:52:02;;;;;;;0.00;0.00;;;;;;;;;;1738492;28;20203;-67
2023/12/08 03:52:54;;;;;;;0.10;0.10;;;;;;;;;;1738472;28;20573;-64
2023/12/08 03:53:46;;;;;;;0.00;0.00;;;;;;;;;;1738410;28;20685;-62
2023/12/08 03:54:38;;;;;;;0.00;0.00;;;;;;;;;;1738256;28;20497;-64
2023/12/08 03:55:29;;;;;;;0.17;0.17;;;;;;;;;;1737503;28;20210;-63
2023/12/08 03:56:20;;;;;;;0.15;0.15;;;;;;;;;;1738116;28;20277;-60
2023/12/08 03:57:14;;;;;;;0.05;0.05;;;;;;;;;;1738756;28;20843;-64
2023/12/08 03:58:05;;;;;;;0.00;0.00;;;;;;;;;;1738384;28;20211;-61
2023/12/08 03:58:56;;;;;;;0.08;0.08;;;;;;;;;;1738621;28;20244;-65
2023/12/08 03:59:48;;;;;;;0.10;0.10;;;;;;;;;;1738312;28;20294;-63
2023/12/08 04:00:39;;;;;;;0.10;0.10;;;;;;;;;;1736817;28;20776;-64
2023/12/08 04:01:30;;;;;;;0.00;0.00;;;;;;;;;;1735832;28;20629;-64
2023/12/08 04:02:21;;;;;;;0.10;0.10;;;;;;;;;;1738569;28;20315;-61
2023/12/08 04:03:13;;;;;;;0.20;0.20;;;;;;;;;;1738153;28;20260;-61
2023/12/08 04:04:04;;;;;;;0.10;0.10;;;;;;;;;;1738820;28;20549;-61
2023/12/08 04:04:56;;;;;;;0.00;0.00;;;;;;;;;;1738039;28;20288;-65
2023/12/08 04:05:47;;;;;;;0.40;0.40;;;;;;;;;;1737424;28;20238;-61
2023/12/08 04:06:39;;;;;;;0.03;0.03;;;;;;;;;;1738079;28;20395;-60
2023/12/08 04:07:30;;;;;;;0.20;0.20;;;;;;;;;;1738362;28;20203;-61
2023/12/08 04:08:21;;;;;;;0.08;0.08;;;;;;;;;;1738367;28;20207;-60
2023/12/08 04:09:13;;;;;;;0.00;0.00;;;;;;;;;;1735989;28;20234;-60
2023/12/08 04:10:04;;;;;;;0.10;0.10;;;;;;;;;;1738011;28;20650;-61
2023/12/08 04:10:55;;;;;;;0.15;0.15;;;;;;;;;;1737787;28;20231;-64
2023/12/08 04:11:47;;;;;;;0.28;0.28;;;;;;;;;;1738060;28;20202;-61
2023/12/08 04:12:39;;;;;;;0.10;0.10;;;;;;;;;;1738705;28;20219;-63
2023/12/08 04:13:30;;;;;;;0.20;0.20;;;;;;;;;;1737130;28;20329;-64
2023/12/08 04:14:22;;;;;;;0.00;0.00;;;;;;;;;;1738705;28;20218;-63
2023/12/08 04:15:14;;;;;;;0.00;0.00;;;;;;;;;;1736884;28;20230;-61
2023/12/08 04:16:05;;;;;;;0.22;0.22;;;;;;;;;;1738225;28;20206;-61
2023/12/08 04:16:57;;;;;;;0.10;0.10;;;;;;;;;;1739119;28;20345;-65
2023/12/08 04:17:49;;;;;;;0.03;0.03;;;;;;;;;;1739831;28;20276;-64
2023/12/08 04:18:40;;;;;;;0.10;0.10;;;;;;;;;;1740325;28;20208;-63
2023/12/08 04:19:32;;;;;;;0.10;0.10;;;;;;;;;;1739927;28;20209;-61
2023/12/08 04:20:24;;;;;;;0.17;0.17;;;;;;;;;;1738899;28;20241;-60
2023/12/08 04:21:18;;;;;;;0.13;0.13;;;;;;;;;;1738588;28;20199;-64
2023/12/08 04:22:10;;;;;;;0.17;0.17;;;;;;;;;;1738417;28;20292;-60
2023/12/08 04:23:04;;;;;;;0.05;0.05;;;;;;;;;;1738298;28;20221;-62
2023/12/08 04:23:56;;;;;;;0.20;0.20;;;;;;;;;;1738484;28;20211;-63
2023/12/08 04:24:47;;;;;;;0.10;0.10;;;;;;;;;;1738274;28;20203;-62
2023/12/08 04:25:38;;;;;;;0.00;0.00;;;;;;;;;;1737527;28;20780;-63
2023/12/08 04:26:31;;;;;;;0.28;0.28;;;;;;;;;;1737662;28;20199;-63
2023/12/08 04:27:22;;;;;;;0.05;0.05;;;;;;;;;;1739008;28;20286;-64
2023/12/08 04:28:14;;;;;;;0.10;0.10;;;;;;;;;;1738479;28;20211;-64
2023/12/08 04:29:06;;;;;;;0.10;0.10;;;;;;;;;;1738922;28;20215;-58
2023/12/08 04:29:57;;;;;;;0.00;0.00;;;;;;;;;;1738268;28;20648;-63
2023/12/08 04:30:48;;;;;;;0.10;0.10;;;;;;;;;;1737518;28;20239;-63
2023/12/08 04:31:40;;;;;;;0.10;0.10;;;;;;;;;;1738039;28;20776;-61
2023/12/08 04:32:31;;;;;;;0.15;0.15;;;;;;;;;;1738093;28;20207;-63
2023/12/08 04:33:22;;;;;;;0.17;0.17;;;;;;;;;;1738557;28;20210;-62
2023/12/08 04:34:14;;;;;;;0.10;0.10;;;;;;;;;;1737727;28;20286;-61
2023/12/08 04:35:06;;;;;;;0.10;0.10;;;;;;;;;;1738241;28;20241;-62
2023/12/08 04:35:57;;;;;;;0.05;0.05;;;;;;;;;;1737703;28;20920;-61
2023/12/08 04:36:49;;;;;;;0.10;0.10;;;;;;;;;;1737935;28;20593;-61
2023/12/08 04:37:40;;;;;;;0.30;0.30;;;;;;;;;;1738872;28;20207;-62
2023/12/08 04:38:31;;;;;;;0.30;0.30;;;;;;;;;;1738400;28;20254;-65
2023/12/08 04:39:23;;;;;;;0.30;0.30;;;;;;;;;;1739115;28;20210;-64
2023/12/08 04:40:14;;;;;;;0.20;0.20;;;;;;;;;;1737164;28;20674;-61
2023/12/08 04:41:06;;;;;;;0.00;0.00;;;;;;;;;;1738647;28;20215;-64
2023/12/08 04:41:57;;;;;;;0.00;0.00;;;;;;;;;;1738720;28;20211;-65
2023/12/08 04:42:49;;;;;;;0.00;0.00;;;;;;;;;;1738737;28;20277;-65
2023/12/08 04:43:42;;;;;;;0.10;0.10;;;;;;;;;;1738301;28;20211;-66
2023/12/08 04:44:33;;;;;;;0.03;0.03;;;;;;;;;;1738590;28;20214;-61
2023/12/08 04:45:25;;;;;;;0.10;0.10;;;;;;;;;;1737277;28;20199;-61
2023/12/08 04:46:17;;;;;;;0.10;0.10;;;;;;;;;;1739015;28;20211;-60
2023/12/08 04:47:10;;;;;;;0.10;0.10;;;;;;;;;;1738585;28;20754;-62
2023/12/08 04:48:01;;;;;;;0.00;0.00;;;;;;;;;;1738668;28;20264;-61
2023/12/08 04:48:53;;;;;;;0.10;0.10;;;;;;;;;;1739124;28;20658;-59
2023/12/08 04:49:45;;;;;;;0.10;0.10;;;;;;;;;;1738587;28;20588;-56
2023/12/08 04:50:36;;;;;;;0.13;0.13;;;;;;;;;;1738201;28;20233;-64
2023/12/08 04:51:28;;;;;;;0.10;0.10;;;;;;;;;;1738272;28;20207;-61
2023/12/08 04:52:19;;;;;;;0.17;0.17;;;;;;;;;;1739433;28;20256;-60
2023/12/08 04:53:10;;;;;;;0.20;0.20;;;;;;;;;;1738356;28;20283;-61
2023/12/08 04:54:02;;;;;;;0.10;0.10;;;;;;;;;;1738820;28;20210;-62
2023/12/08 04:54:53;;;;;;;0.17;0.17;;;;;;;;;;1738206;28;20551;-61
2023/12/08 04:55:44;;;;;;;0.10;0.10;;;;;;;;;;1737136;28;20786;-63
2023/12/08 04:56:36;;;;;;;0.10;0.10;;;;;;;;;;1737533;28;20285;-63
2023/12/08 04:57:27;;;;;;;0.17;0.17;;;;;;;;;;1738408;28;20622;-63
2023/12/08 04:58:20;;;;;;;0.20;0.20;;;;;;;;;;1738113;28;20207;-64
2023/12/08 04:59:13;;;;;;;0.30;0.30;;;;;;;;;;1738240;28;20619;-63
2023/12/08 05:00:05;;;;;;;0.10;0.10;;;;;;;;;;1737966;28;20268;-63
2023/12/08 05:00:56;;;;;;;0.20;0.20;;;;;;;;;;1734219;28;20257;-67
2023/12/08 05:01:50;;;;;;;0.10;0.10;;;;;;;;;;1737354;28;20293;-62
2023/12/08 05:02:42;;;;;;;0.10;0.10;;;;;;;;;;1737864;28;20226;-62
2023/12/08 05:03:33;;;;;;;0.20;0.20;;;;;;;;;;1737898;28;20260;-65
2023/12/08 05:04:24;;;;;;;0.20;0.20;;;;;;;;;;1738632;28;20199;-62
2023/12/08 05:05:16;;;;;;;0.10;0.10;;;;;;;;;;1737450;28;20238;-63
2023/12/08 05:06:07;;;;;;;0.20;0.20;;;;;;;;;;1737534;28;20260;-64
2023/12/08 05:06:58;;;;;;;0.10;0.10;;;;;;;;;;1737328;28;20234;-62
2023/12/08 05:07:50;;;;;;;0.10;0.10;;;;;;;;;;1737869;28;20219;-62
2023/12/08 05:08:41;;;;;;;0.10;0.10;;;;;;;;;;1737114;28;20215;-62
2023/12/08 05:09:33;;;;;;;0.20;0.20;;;;;;;;;;1737994;28;20207;-60
2023/12/08 05:10:24;;;;;;;0.20;0.20;;;;;;;;;;1736646;28;20267;-61